createdAt,value
2022-10-25T00:01:46.548Z,32.63
2022-10-25T00:04:15.870Z,27.30
2022-10-25T00:06:46.654Z,32.40
2022-10-25T00:09:17.001Z,36.53
2022-10-25T00:11:44.591Z,45.45
2022-10-25T00:14:18.697Z,31.73
2022-10-25T00:16:46.830Z,27.95
2022-10-25T00:19:14.506Z,27.67
2022-10-25T00:21:42.247Z,32.45
2022-10-25T00:24:14.673Z,42.67
2022-10-25T00:26:45.493Z,30.50
2022-10-25T00:29:17.430Z,31.65
2022-10-25T00:31:50.977Z,27.08
2022-10-25T00:34:24.210Z,26.92
2022-10-25T00:36:51.661Z,27.15
2022-10-25T00:39:19.269Z,28.00
2022-10-25T00:41:47.228Z,27.98
2022-10-25T00:44:54.537Z,26.92
2022-10-25T00:48:08.192Z,34.60
2022-10-25T00:50:57.691Z,27.45
2022-10-25T00:53:40.210Z,28.90
2022-10-25T00:56:23.626Z,26.15
2022-10-25T00:58:55.746Z,29.80
2022-10-25T01:01:28.162Z,37.80
2022-10-25T01:04:03.922Z,32.88
2022-10-25T01:06:40.950Z,43.00
2022-10-25T01:09:13.937Z,28.15
2022-10-25T01:11:41.493Z,26.92
2022-10-25T01:14:14.762Z,23.33
2022-10-25T01:17:05.116Z,36.22
2022-10-25T01:20:10.031Z,38.55
2022-10-25T01:25:25.699Z,43.00
2022-10-25T01:28:19.823Z,34.10
2022-10-25T01:31:10.276Z,46.75
2022-10-25T01:33:51.424Z,41.30
2022-10-25T01:36:25.325Z,35.78
2022-10-25T01:39:11.051Z,30.50
2022-10-25T01:41:47.709Z,24.65
2022-10-25T01:44:43.910Z,23.30
2022-10-25T01:47:26.730Z,29.63
2022-10-25T01:50:07.970Z,26.80
2022-10-25T01:52:35.323Z,45.38
2022-10-25T01:55:09.857Z,27.67
2022-10-25T01:57:58.838Z,40.55
2022-10-25T02:00:28.706Z,34.33
2022-10-25T02:03:35.076Z,27.17
2022-10-25T02:06:24.304Z,34.75
2022-10-25T02:09:31.495Z,28.30
2022-10-25T02:12:05.378Z,31.75
2022-10-25T02:14:39.346Z,29.63
2022-10-25T02:17:13.159Z,25.35
2022-10-25T02:19:47.076Z,30.15
2022-10-25T02:22:18.731Z,33.47
2022-10-25T02:24:53.228Z,36.55
2022-10-25T02:27:23.404Z,43.97
2022-10-25T02:29:53.882Z,31.27
2022-10-25T02:32:25.679Z,25.27
2022-10-25T02:34:54.566Z,41.88
2022-10-25T02:37:22.613Z,21.55
2022-10-25T02:39:55.068Z,28.15
2022-10-25T02:42:24.104Z,41.35
2022-10-25T02:44:52.657Z,35.33
2022-10-25T02:47:29.216Z,29.02
2022-10-25T02:49:56.662Z,26.08
2022-10-25T02:52:25.021Z,35.60
2022-10-25T02:54:52.288Z,29.27
2022-10-25T02:57:23.168Z,40.20
2022-10-25T02:59:57.237Z,30.73
2022-10-25T03:02:27.028Z,30.23
2022-10-25T03:04:55.619Z,25.55
2022-10-25T03:07:46.079Z,35.50
2022-10-25T03:10:14.659Z,35.72
2022-10-25T03:12:42.322Z,30.10
2022-10-25T03:15:11.230Z,35.40
2022-10-25T03:17:43.347Z,26.65
2022-10-25T03:20:11.285Z,29.98
2022-10-25T03:22:40.116Z,29.20
2022-10-25T03:27:42.520Z,31.23
2022-10-25T03:30:12.892Z,32.08
2022-10-25T03:32:43.619Z,36.38
2022-10-25T03:35:10.954Z,54.28
2022-10-25T03:37:39.338Z,28.23
2022-10-25T03:40:09.837Z,53.08
2022-10-25T03:42:45.184Z,35.28
2022-10-25T03:45:13.841Z,37.33
2022-10-25T03:47:45.742Z,31.60
2022-10-25T03:50:15.588Z,30.88
2022-10-25T03:52:44.960Z,45.03
2022-10-25T03:55:12.548Z,54.53
2022-10-25T03:57:43.285Z,38.38
2022-10-25T04:00:22.063Z,38.95
2022-10-25T04:03:01.700Z,30.90
2022-10-25T04:05:32.785Z,39.72
2022-10-25T04:08:01.623Z,38.35
2022-10-25T04:10:29.696Z,30.27
2022-10-25T04:13:04.402Z,32.20
2022-10-25T04:15:31.971Z,27.52
2022-10-25T04:18:06.270Z,39.83
2022-10-25T04:20:34.983Z,38.20
2022-10-25T04:23:28.155Z,45.13
2022-10-25T04:29:40.080Z,35.25
2022-10-25T04:32:33.390Z,33.83
2022-10-25T04:35:02.665Z,40.85
2022-10-25T04:37:38.687Z,43.55
2022-10-25T04:40:09.574Z,34.55
2022-10-25T04:42:38.294Z,28.23
2022-10-25T04:45:06.293Z,39.83
2022-10-25T04:47:40.156Z,32.67
2022-10-25T04:50:09.589Z,44.90
2022-10-25T04:52:38.580Z,24.52
2022-10-25T04:55:10.949Z,30.38
2022-10-25T04:57:42.712Z,40.53
2022-10-25T05:00:20.808Z,35.03
2022-10-25T05:02:53.172Z,30.17
2022-10-25T05:05:25.448Z,33.75
2022-10-25T05:07:58.023Z,34.20
2022-10-25T05:10:36.368Z,36.38
2022-10-25T05:13:32.372Z,44.10
2022-10-25T05:16:00.742Z,42.60
2022-10-25T05:18:28.633Z,36.92
2022-10-25T05:20:59.225Z,27.13
2022-10-25T05:23:32.575Z,36.10
2022-10-25T05:26:11.818Z,38.17
2022-10-25T05:28:43.017Z,25.90
2022-10-25T05:31:20.687Z,44.45
2022-10-25T05:36:43.374Z,35.50
2022-10-25T05:39:28.959Z,28.17
2022-10-25T05:42:14.791Z,25.65
2022-10-25T05:45:08.565Z,31.00
2022-10-25T05:47:39.792Z,24.70
2022-10-25T05:50:12.501Z,33.40
2022-10-25T05:52:48.131Z,23.40
2022-10-25T05:55:31.742Z,24.55
2022-10-25T05:58:05.688Z,21.95
2022-10-25T06:04:00.996Z,36.33
2022-10-25T06:09:21.703Z,22.00
2022-10-25T06:12:18.229Z,20.33
2022-10-25T06:14:53.324Z,20.13
2022-10-25T06:18:13.018Z,24.63
2022-10-25T06:20:42.862Z,19.33
2022-10-25T06:23:14.153Z,18.88
2022-10-25T06:26:02.912Z,18.25
2022-10-25T06:28:33.330Z,17.98
2022-10-25T06:31:24.489Z,15.52
2022-10-25T06:33:52.875Z,15.73
2022-10-25T06:36:34.549Z,21.42
2022-10-25T06:39:08.346Z,15.90
2022-10-25T06:41:45.462Z,16.48
2022-10-25T06:44:15.722Z,16.98
2022-10-25T06:47:20.340Z,15.27
2022-10-25T06:49:47.821Z,22.65
2022-10-25T06:53:10.525Z,14.02
2022-10-25T06:56:25.812Z,13.20
2022-10-25T06:59:32.732Z,11.85
2022-10-25T07:02:04.682Z,11.43
2022-10-25T07:04:37.644Z,12.45
2022-10-25T07:07:13.527Z,11.65
2022-10-25T07:09:54.848Z,11.45
2022-10-25T07:12:31.336Z,11.73
2022-10-25T07:15:01.249Z,11.82
2022-10-25T07:17:30.437Z,15.38
2022-10-25T07:19:58.804Z,11.35
2022-10-25T07:22:29.453Z,9.77
2022-10-25T07:24:58.052Z,11.52
2022-10-25T07:27:27.124Z,12.57
2022-10-25T07:29:54.813Z,7.93
2022-10-25T07:32:23.301Z,6.72
2022-10-25T07:34:54.531Z,6.80
2022-10-25T07:37:23.027Z,6.18
2022-10-25T07:39:52.482Z,4.93
2022-10-25T07:42:21.711Z,4.93
2022-10-25T07:44:54.379Z,5.63
2022-10-25T07:47:23.145Z,4.30
2022-10-25T07:49:51.276Z,5.47
2022-10-25T07:52:22.522Z,6.25
2022-10-25T07:54:59.459Z,5.57
2022-10-25T07:57:27.495Z,4.85
2022-10-25T07:59:55.290Z,5.20
2022-10-25T08:02:26.319Z,4.90
2022-10-25T08:04:55.324Z,5.82
2022-10-25T08:07:27.422Z,8.30
2022-10-25T08:09:56.971Z,6.07
2022-10-25T08:12:24.591Z,7.60
2022-10-25T08:14:53.182Z,7.65
2022-10-25T08:17:20.657Z,7.90
2022-10-25T08:19:51.201Z,15.48
2022-10-25T08:22:19.453Z,8.07
2022-10-25T08:24:52.185Z,8.10
2022-10-25T08:27:20.849Z,8.20
2022-10-25T08:29:49.771Z,9.55
2022-10-25T08:32:18.821Z,10.00
2022-10-25T08:34:47.258Z,9.63
2022-10-25T08:37:14.783Z,8.93
2022-10-25T08:39:42.030Z,9.10
2022-10-25T08:42:23.091Z,12.52
2022-10-25T08:45:02.545Z,9.00
2022-10-25T08:47:41.489Z,10.80
2022-10-25T08:50:36.133Z,10.20
2022-10-25T08:53:18.791Z,9.65
2022-10-25T08:55:59.109Z,10.60
2022-10-25T08:58:54.714Z,11.18
2022-10-25T09:01:32.391Z,9.13
2022-10-25T09:04:05.662Z,9.55
2022-10-25T09:06:42.687Z,9.45
2022-10-25T09:09:20.663Z,8.15
2022-10-25T09:11:54.734Z,6.80
2022-10-25T09:14:28.267Z,7.20
2022-10-25T09:17:01.744Z,7.22
2022-10-25T09:19:39.653Z,8.32
2022-10-25T09:22:30.511Z,7.72
2022-10-25T09:25:23.272Z,6.60
2022-10-25T09:28:11.378Z,7.72
2022-10-25T09:30:43.221Z,8.88
2022-10-25T09:33:19.843Z,9.10
2022-10-25T09:35:50.229Z,10.25
2022-10-25T09:38:47.997Z,9.38
2022-10-25T09:41:36.095Z,9.23
2022-10-25T09:44:26.374Z,10.95
2022-10-25T09:47:03.145Z,9.95
2022-10-25T09:49:49.232Z,9.95
2022-10-25T09:52:23.274Z,11.18
2022-10-25T09:55:28.026Z,13.50
2022-10-25T09:57:55.955Z,20.58
2022-10-25T10:00:24.444Z,19.63
2022-10-25T10:02:54.916Z,15.82
2022-10-25T10:05:25.964Z,21.23
2022-10-25T10:07:56.286Z,16.77
2022-10-25T10:10:28.817Z,16.77
2022-10-25T10:13:18.636Z,10.82
2022-10-25T10:15:52.760Z,13.23
2022-10-25T10:18:21.251Z,15.25
2022-10-25T10:21:01.402Z,12.05
2022-10-25T10:23:42.980Z,12.50
2022-10-25T10:26:45.290Z,10.98
2022-10-25T10:29:24.602Z,21.13
2022-10-25T10:31:54.731Z,10.18
2022-10-25T10:34:37.414Z,14.60
2022-10-25T10:37:21.113Z,9.00
2022-10-25T10:40:17.830Z,7.78
2022-10-25T10:42:45.672Z,8.27
2022-10-25T10:45:18.057Z,9.45
2022-10-25T10:47:59.184Z,14.27
2022-10-25T10:50:32.851Z,10.18
2022-10-25T10:53:06.458Z,9.32
2022-10-25T10:55:49.581Z,8.75
2022-10-25T10:58:19.803Z,11.48
2022-10-25T11:00:55.158Z,8.52
2022-10-25T11:03:59.454Z,10.52
2022-10-25T11:06:35.332Z,8.38
2022-10-25T11:09:13.012Z,8.80
2022-10-25T11:11:40.776Z,8.93
2022-10-25T11:14:15.286Z,8.75
2022-10-25T11:17:17.169Z,15.68
2022-10-25T11:19:53.416Z,13.10
2022-10-25T11:22:38.145Z,10.40
2022-10-25T11:25:05.642Z,10.25
2022-10-25T11:28:00.264Z,9.95
2022-10-25T11:30:38.197Z,10.25
2022-10-25T11:33:32.853Z,9.07
2022-10-25T11:36:03.182Z,8.88
2022-10-25T11:38:40.809Z,8.95
2022-10-25T11:41:11.087Z,8.25
2022-10-25T11:43:48.112Z,10.38
2022-10-25T11:46:20.993Z,9.38
2022-10-25T11:49:09.606Z,9.02
2022-10-25T11:52:02.741Z,10.73
2022-10-25T11:55:23.084Z,8.70
2022-10-25T11:58:18.020Z,8.27
2022-10-25T12:00:56.036Z,7.68
2022-10-25T12:04:01.837Z,7.55
2022-10-25T12:06:30.477Z,8.07
2022-10-25T12:09:35.288Z,6.82
2022-10-25T12:12:11.095Z,8.80
2022-10-25T12:14:49.846Z,8.25
2022-10-25T12:17:30.977Z,5.28
2022-10-25T12:20:07.561Z,9.18
2022-10-25T12:22:43.344Z,5.63
2022-10-25T12:25:28.459Z,5.90
2022-10-25T12:28:12.225Z,7.70
2022-10-25T12:30:41.697Z,6.30
2022-10-25T12:33:40.282Z,10.02
2022-10-25T12:36:23.316Z,7.15
2022-10-25T12:38:50.885Z,6.95
2022-10-25T12:41:38.376Z,6.70
2022-10-25T12:44:12.150Z,7.35
2022-10-25T12:47:03.456Z,6.35
2022-10-25T12:49:37.628Z,4.95
2022-10-25T12:52:25.751Z,4.70
2022-10-25T12:55:38.145Z,5.03
2022-10-25T12:58:17.374Z,4.70
2022-10-25T13:00:56.854Z,4.82
2022-10-25T13:03:40.663Z,6.45
2022-10-25T13:06:16.729Z,10.50
2022-10-25T13:08:44.638Z,5.70
2022-10-25T13:11:12.760Z,5.28
2022-10-25T13:13:48.990Z,5.15
2022-10-25T13:16:26.179Z,5.85
2022-10-25T13:19:30.666Z,6.40
2022-10-25T13:22:28.095Z,6.18
2022-10-25T13:24:56.738Z,6.40
2022-10-25T13:27:27.403Z,7.35
2022-10-25T13:30:02.410Z,8.13
2022-10-25T13:32:34.301Z,7.45
2022-10-25T13:35:03.812Z,6.38
2022-10-25T13:37:34.284Z,7.43
2022-10-25T13:40:21.110Z,9.45
2022-10-25T13:42:59.085Z,5.50
2022-10-25T13:45:45.774Z,6.45
2022-10-25T13:48:29.385Z,5.72
2022-10-25T13:51:01.345Z,4.68
2022-10-25T13:53:40.746Z,4.07
2022-10-25T13:56:17.395Z,4.75
2022-10-25T13:58:52.976Z,6.57
2022-10-25T14:01:21.749Z,5.03
2022-10-25T14:04:02.631Z,6.55
2022-10-25T14:06:43.093Z,5.55
2022-10-25T14:09:27.635Z,11.88
2022-10-25T14:12:13.757Z,5.35
2022-10-25T14:14:48.125Z,5.93
2022-10-25T14:17:44.700Z,3.83
2022-10-25T14:20:24.789Z,3.55
2022-10-25T14:22:56.411Z,3.22
2022-10-25T14:25:35.973Z,3.90
2022-10-25T14:28:16.639Z,5.22
2022-10-25T14:30:47.358Z,4.72
2022-10-25T14:33:28.905Z,4.88
2022-10-25T14:36:27.718Z,5.38
2022-10-25T14:38:58.399Z,12.25
2022-10-25T14:41:29.273Z,6.60
2022-10-25T14:43:57.778Z,7.13
2022-10-25T14:46:27.537Z,4.45
2022-10-25T14:49:03.727Z,6.45
2022-10-25T14:51:35.511Z,5.03
2022-10-25T14:54:20.336Z,6.18
2022-10-25T14:56:51.019Z,4.72
2022-10-25T14:59:20.181Z,7.22
2022-10-25T15:02:21.125Z,5.70
2022-10-25T15:04:55.068Z,5.18
2022-10-25T15:07:31.467Z,7.03
2022-10-25T15:10:01.202Z,7.13
2022-10-25T15:12:30.643Z,9.43
2022-10-25T15:15:19.155Z,7.63
2022-10-25T15:17:54.254Z,9.27
2022-10-25T15:20:21.873Z,12.10
2022-10-25T15:22:51.131Z,7.80
2022-10-25T15:25:21.694Z,15.68
2022-10-25T15:27:51.517Z,8.63
2022-10-25T15:30:39.169Z,9.30
2022-10-25T15:33:18.692Z,7.43
2022-10-25T15:35:52.372Z,7.88
2022-10-25T15:38:20.111Z,6.50
2022-10-25T15:40:48.780Z,6.65
2022-10-25T15:43:18.478Z,13.82
2022-10-25T15:45:45.974Z,8.85
2022-10-25T15:48:19.194Z,6.60
2022-10-25T15:50:58.050Z,9.10
2022-10-25T15:53:25.990Z,13.63
2022-10-25T15:55:53.816Z,11.65
2022-10-25T15:58:21.327Z,16.70
2022-10-25T16:00:51.997Z,21.38
2022-10-25T16:03:25.021Z,11.57
2022-10-25T16:05:52.733Z,17.15
2022-10-25T16:08:20.249Z,16.92
2022-10-25T16:10:47.863Z,19.48
2022-10-25T16:13:36.940Z,18.55
2022-10-25T16:16:11.722Z,15.95
2022-10-25T16:18:49.777Z,13.70
2022-10-25T16:21:19.802Z,13.68
2022-10-25T16:23:49.416Z,11.50
2022-10-25T16:26:28.543Z,24.92
2022-10-25T16:28:57.109Z,14.00
2022-10-25T16:31:24.596Z,19.10
2022-10-25T16:33:52.445Z,16.52
2022-10-25T16:36:20.702Z,14.20
2022-10-25T16:38:48.433Z,14.38
2022-10-25T16:41:29.472Z,13.70
2022-10-25T16:43:58.554Z,17.23
2022-10-25T16:46:26.451Z,22.70
2022-10-25T16:48:55.904Z,24.73
2022-10-25T16:51:25.955Z,16.33
2022-10-25T16:53:54.559Z,36.08
2022-10-25T16:56:21.877Z,27.08
2022-10-25T16:58:49.409Z,32.03
2022-10-25T17:01:26.574Z,26.45
2022-10-25T17:03:55.239Z,29.27
2022-10-25T17:06:40.113Z,38.40
2022-10-25T17:09:08.126Z,44.08
2022-10-25T17:11:36.483Z,29.33
2022-10-25T17:14:04.397Z,24.85
2022-10-25T17:16:31.663Z,25.33
2022-10-25T17:18:59.124Z,27.67
2022-10-25T17:21:27.996Z,21.13
2022-10-25T17:23:56.737Z,22.73
2022-10-25T17:26:24.088Z,36.03
2022-10-25T17:28:51.635Z,27.75
2022-10-25T17:31:18.979Z,27.92
2022-10-25T17:33:47.654Z,24.63
2022-10-25T17:36:18.764Z,25.67
2022-10-25T17:38:46.524Z,46.70
2022-10-25T17:41:14.785Z,45.38
2022-10-25T17:43:42.908Z,34.70
2022-10-25T17:46:19.670Z,29.88
2022-10-25T17:48:47.677Z,103.45
2022-10-25T17:51:15.929Z,50.53
2022-10-25T17:53:43.784Z,27.70
2022-10-25T17:56:13.653Z,20.35
2022-10-25T17:58:42.220Z,20.40
2022-10-25T18:01:11.162Z,20.98
2022-10-25T18:03:39.360Z,18.17
2022-10-25T18:06:12.402Z,25.00
2022-10-25T18:11:14.104Z,13.13
2022-10-25T18:13:42.092Z,12.93
2022-10-25T18:16:12.498Z,11.77
2022-10-25T18:18:40.201Z,16.60
2022-10-25T18:21:10.837Z,12.70
2022-10-25T18:23:42.434Z,12.98
2022-10-25T18:26:12.019Z,14.85
2022-10-25T18:28:39.739Z,11.43
2022-10-25T18:31:12.744Z,13.23
2022-10-25T18:33:42.730Z,10.32
2022-10-25T18:36:16.025Z,9.82
2022-10-25T18:38:44.529Z,13.48
2022-10-25T18:41:22.421Z,9.70
2022-10-25T18:43:50.866Z,12.13
2022-10-25T18:46:18.836Z,10.95
2022-10-25T18:48:55.491Z,12.80
2022-10-25T18:51:24.656Z,13.57
2022-10-25T18:54:00.501Z,26.17
2022-10-25T18:56:29.717Z,16.48
2022-10-25T18:58:58.243Z,13.55
2022-10-25T19:01:32.255Z,15.77
2022-10-25T19:04:02.839Z,14.18
2022-10-25T19:06:32.577Z,14.75
2022-10-25T19:09:00.654Z,14.88
2022-10-25T19:11:27.894Z,26.27
2022-10-25T19:13:56.305Z,15.98
2022-10-25T19:16:24.268Z,13.75
2022-10-25T19:18:51.868Z,12.75
2022-10-25T19:21:20.316Z,13.50
2022-10-25T19:23:48.666Z,12.68
2022-10-25T19:26:21.162Z,13.40
2022-10-25T19:28:56.730Z,16.40
2022-10-25T19:31:24.752Z,24.95
2022-10-25T19:33:53.489Z,10.50
2022-10-25T19:36:20.979Z,11.45
2022-10-25T19:38:48.901Z,11.65
2022-10-25T19:41:24.055Z,12.00
2022-10-25T19:43:56.771Z,10.32
2022-10-25T19:46:25.196Z,10.65
2022-10-25T19:48:52.803Z,9.40
2022-10-25T19:51:20.909Z,10.90
2022-10-25T19:53:49.166Z,10.90
2022-10-25T19:56:22.235Z,10.45
2022-10-25T19:58:50.461Z,10.63
2022-10-25T20:01:23.583Z,11.10
2022-10-25T20:03:54.771Z,11.48
2022-10-25T20:06:25.202Z,11.82
2022-10-25T20:08:53.945Z,11.68
2022-10-25T20:11:23.100Z,13.10
2022-10-25T20:13:55.208Z,12.32
2022-10-25T20:16:23.362Z,12.57
2022-10-25T20:18:51.282Z,12.25
2022-10-25T20:21:22.469Z,13.18
2022-10-25T20:23:56.782Z,12.65
2022-10-25T20:26:33.240Z,16.38
2022-10-25T20:29:03.637Z,16.48
2022-10-25T20:31:32.574Z,16.15
2022-10-25T20:34:02.530Z,18.17
2022-10-25T20:36:44.423Z,16.50
2022-10-25T20:39:13.313Z,18.77
2022-10-25T20:41:43.058Z,23.05
2022-10-25T20:44:11.216Z,26.63
2022-10-25T20:46:38.473Z,30.52
2022-10-25T20:49:07.711Z,57.58
2022-10-25T20:51:35.234Z,48.30
2022-10-25T20:54:09.589Z,22.65
2022-10-25T20:56:39.916Z,17.55
2022-10-25T20:59:08.487Z,16.27
2022-10-25T21:01:36.097Z,20.38
2022-10-25T21:04:04.145Z,14.05
2022-10-25T21:06:31.421Z,14.93
2022-10-25T21:09:01.117Z,17.02
2022-10-25T21:11:33.161Z,18.05
2022-10-25T21:14:11.881Z,22.45
2022-10-25T21:16:44.688Z,45.05
2022-10-25T21:19:12.710Z,42.08
2022-10-25T21:22:05.157Z,37.78
2022-10-25T21:27:02.760Z,30.60
2022-10-25T21:29:31.237Z,29.70
2022-10-25T21:31:58.627Z,19.85
2022-10-25T21:34:26.107Z,21.27
2022-10-25T21:36:53.491Z,15.50
2022-10-25T21:39:24.061Z,19.77
2022-10-25T21:41:52.733Z,13.68
2022-10-25T21:44:22.319Z,17.30
2022-10-25T21:46:49.757Z,13.65
2022-10-25T21:49:17.245Z,12.15
2022-10-25T21:51:44.507Z,13.20
2022-10-25T21:54:14.496Z,12.50
2022-10-25T21:56:43.018Z,17.38
2022-10-25T21:59:10.510Z,15.18
2022-10-25T22:01:37.952Z,15.45
2022-10-25T22:04:05.805Z,13.57
2022-10-25T22:06:33.119Z,13.82
2022-10-25T22:09:00.656Z,19.77
2022-10-25T22:11:31.033Z,25.55
2022-10-25T22:14:01.404Z,21.60
2022-10-25T22:16:29.600Z,17.92
2022-10-25T22:19:03.159Z,15.50
2022-10-25T22:21:39.973Z,21.48
2022-10-25T22:24:09.281Z,22.17
2022-10-25T22:26:38.933Z,29.25
2022-10-25T22:29:06.698Z,21.67
2022-10-25T22:31:36.293Z,24.98
2022-10-25T22:34:06.649Z,20.05
2022-10-25T22:36:39.398Z,16.13
2022-10-25T22:39:08.414Z,16.10
2022-10-25T22:41:36.012Z,17.33
2022-10-25T22:44:04.494Z,17.25
2022-10-25T22:46:34.286Z,16.45
2022-10-25T22:49:07.587Z,15.60
2022-10-25T22:51:36.452Z,19.35
2022-10-25T22:54:04.077Z,17.08
2022-10-25T22:56:32.422Z,18.83
2022-10-25T22:59:02.807Z,20.73
2022-10-25T23:01:35.117Z,16.30
2022-10-25T23:04:06.212Z,15.50
2022-10-25T23:06:35.681Z,14.52
2022-10-25T23:09:07.042Z,15.10
2022-10-25T23:11:37.245Z,15.05
2022-10-25T23:14:14.718Z,15.97
2022-10-25T23:16:53.276Z,14.05
2022-10-25T23:20:02.066Z,15.43
2022-10-25T23:22:40.567Z,15.68
2022-10-25T23:25:08.959Z,15.05
2022-10-25T23:27:36.185Z,15.43
2022-10-25T23:30:03.811Z,15.73
2022-10-25T23:32:31.078Z,14.80
2022-10-25T23:35:00.170Z,14.68
2022-10-25T23:37:28.614Z,13.90
2022-10-25T23:39:56.115Z,16.30
2022-10-25T23:42:26.054Z,18.20
2022-10-25T23:45:01.188Z,14.25
2022-10-25T23:47:29.401Z,17.98
2022-10-25T23:50:00.278Z,14.45
2022-10-25T23:52:36.561Z,16.05
2022-10-25T23:55:06.535Z,15.13
2022-10-25T23:57:35.471Z,15.00
